sensor_id;sensor_type;location;lat;lon;timestamp;temperature;humidity
26262;DHT22;13988;52.446;13.280;2024-02-15T00:00:40;9.00;99.90
26262;DHT22;13988;52.446;13.280;2024-02-15T00:03:06;9.00;99.90
26262;DHT22;13988;52.446;13.280;2024-02-15T00:05:32;9.10;99.90
26262;DHT22;13988;52.446;13.280;2024-02-15T00:08:02;9.00;99.90
26262;DHT22;13988;52.446;13.280;2024-02-15T00:10:27;9.10;99.90
26262;DHT22;13988;52.446;13.280;2024-02-15T00:12:53;9.10;99.90
26262;DHT22;13988;52.446;13.280;2024-02-15T00:15:18;9.10;99.90
26262;DHT22;13988;52.446;13.280;2024-02-15T00:17:45;9.10;99.90
26262;DHT22;13988;52.446;13.280;2024-02-15T00:20:12;9.10;99.90
26262;DHT22;13988;52.446;13.280;2024-02-15T00:22:38;9.10;99.90
26262;DHT22;13988;52.446;13.280;2024-02-15T00:25:06;9.10;99.90
26262;DHT22;13988;52.446;13.280;2024-02-15T00:27:37;9.10;99.90
26262;DHT22;13988;52.446;13.280;2024-02-15T00:30:04;9.10;99.90
26262;DHT22;13988;52.446;13.280;2024-02-15T00:32:33;9.10;99.90
26262;DHT22;13988;52.446;13.280;2024-02-15T00:34:59;9.20;99.90
26262;DHT22;13988;52.446;13.280;2024-02-15T00:37:25;9.20;99.90
26262;DHT22;13988;52.446;13.280;2024-02-15T00:39:51;9.20;99.90
26262;DHT22;13988;52.446;13.280;2024-02-15T00:42:16;9.20;99.90
26262;DHT22;13988;52.446;13.280;2024-02-15T00:44:42;9.20;99.90
26262;DHT22;13988;52.446;13.280;2024-02-15T00:47:09;9.20;99.90
26262;DHT22;13988;52.446;13.280;2024-02-15T00:49:36;9.20;99.90
26262;DHT22;13988;52.446;13.280;2024-02-15T00:52:01;9.20;99.90
26262;DHT22;13988;52.446;13.280;2024-02-15T00:54:27;9.20;99.90
26262;DHT22;13988;52.446;13.280;2024-02-15T00:56:53;9.20;99.90
26262;DHT22;13988;52.446;13.280;2024-02-15T00:59:18;9.20;99.90
26262;DHT22;13988;52.446;13.280;2024-02-15T01:01:44;9.20;99.90
26262;DHT22;13988;52.446;13.280;2024-02-15T01:04:13;9.20;99.90
26262;DHT22;13988;52.446;13.280;2024-02-15T01:06:38;9.20;99.90
26262;DHT22;13988;52.446;13.280;2024-02-15T01:09:04;9.20;99.90
26262;DHT22;13988;52.446;13.280;2024-02-15T01:11:30;9.20;99.90
26262;DHT22;13988;52.446;13.280;2024-02-15T01:13:58;9.20;99.90
26262;DHT22;13988;52.446;13.280;2024-02-15T01:16:24;9.30;99.90
26262;DHT22;13988;52.446;13.280;2024-02-15T01:18:50;9.30;99.90
26262;DHT22;13988;52.446;13.280;2024-02-15T01:21:16;9.30;99.90
26262;DHT22;13988;52.446;13.280;2024-02-15T01:23:42;9.30;99.90
26262;DHT22;13988;52.446;13.280;2024-02-15T01:26:08;9.20;99.90
26262;DHT22;13988;52.446;13.280;2024-02-15T01:28:33;9.20;99.90
26262;DHT22;13988;52.446;13.280;2024-02-15T01:30:59;9.30;99.90
26262;DHT22;13988;52.446;13.280;2024-02-15T01:33:26;9.30;99.90
26262;DHT22;13988;52.446;13.280;2024-02-15T01:35:52;9.20;99.90
26262;DHT22;13988;52.446;13.280;2024-02-15T01:38:18;9.20;99.90
26262;DHT22;13988;52.446;13.280;2024-02-15T01:40:44;9.20;99.90
26262;DHT22;13988;52.446;13.280;2024-02-15T01:43:11;9.20;99.90
26262;DHT22;13988;52.446;13.280;2024-02-15T01:45:37;9.30;99.90
26262;DHT22;13988;52.446;13.280;2024-02-15T01:48:03;9.30;99.90
26262;DHT22;13988;52.446;13.280;2024-02-15T01:50:30;9.30;99.90
26262;DHT22;13988;52.446;13.280;2024-02-15T01:52:57;9.30;99.90
26262;DHT22;13988;52.446;13.280;2024-02-15T01:55:24;9.30;99.90
26262;DHT22;13988;52.446;13.280;2024-02-15T01:57:49;9.30;99.90
26262;DHT22;13988;52.446;13.280;2024-02-15T02:00:18;9.30;99.90
26262;DHT22;13988;52.446;13.280;2024-02-15T02:02:44;9.20;99.90
26262;DHT22;13988;52.446;13.280;2024-02-15T02:05:10;9.30;99.90
26262;DHT22;13988;52.446;13.280;2024-02-15T02:07:37;9.30;99.90
26262;DHT22;13988;52.446;13.280;2024-02-15T02:10:03;9.30;99.90
26262;DHT22;13988;52.446;13.280;2024-02-15T02:12:30;9.30;99.90
26262;DHT22;13988;52.446;13.280;2024-02-15T02:14:56;9.30;99.90
26262;DHT22;13988;52.446;13.280;2024-02-15T02:17:22;9.30;99.90
26262;DHT22;13988;52.446;13.280;2024-02-15T02:19:49;9.30;99.90
26262;DHT22;13988;52.446;13.280;2024-02-15T02:22:18;9.30;99.90
26262;DHT22;13988;52.446;13.280;2024-02-15T02:27:20;9.30;99.90
26262;DHT22;13988;52.446;13.280;2024-02-15T02:29:46;9.30;99.90
26262;DHT22;13988;52.446;13.280;2024-02-15T02:32:12;9.30;99.90
26262;DHT22;13988;52.446;13.280;2024-02-15T02:34:38;9.30;99.90
26262;DHT22;13988;52.446;13.280;2024-02-15T02:37:06;9.30;99.90
26262;DHT22;13988;52.446;13.280;2024-02-15T02:39:33;9.30;99.90
26262;DHT22;13988;52.446;13.280;2024-02-15T02:41:59;9.30;99.90
26262;DHT22;13988;52.446;13.280;2024-02-15T02:44:25;9.30;99.90
26262;DHT22;13988;52.446;13.280;2024-02-15T02:46:51;9.40;99.90
26262;DHT22;13988;52.446;13.280;2024-02-15T02:49:16;9.30;99.90
26262;DHT22;13988;52.446;13.280;2024-02-15T02:51:42;9.30;99.90
26262;DHT22;13988;52.446;13.280;2024-02-15T02:54:08;9.40;99.90
26262;DHT22;13988;52.446;13.280;2024-02-15T02:56:34;9.30;99.90
26262;DHT22;13988;52.446;13.280;2024-02-15T02:58:59;9.40;99.90
26262;DHT22;13988;52.446;13.280;2024-02-15T03:01:25;9.40;99.90
26262;DHT22;13988;52.446;13.280;2024-02-15T03:03:52;9.40;99.90
26262;DHT22;13988;52.446;13.280;2024-02-15T03:06:21;9.40;99.90
26262;DHT22;13988;52.446;13.280;2024-02-15T03:08:47;9.30;99.90
26262;DHT22;13988;52.446;13.280;2024-02-15T03:11:12;9.40;99.90
26262;DHT22;13988;52.446;13.280;2024-02-15T03:13:39;9.30;99.90
26262;DHT22;13988;52.446;13.280;2024-02-15T03:16:05;9.40;99.90
26262;DHT22;13988;52.446;13.280;2024-02-15T03:18:31;9.40;99.90
26262;DHT22;13988;52.446;13.280;2024-02-15T03:20:58;9.40;99.90
26262;DHT22;13988;52.446;13.280;2024-02-15T03:23:24;9.40;99.90
26262;DHT22;13988;52.446;13.280;2024-02-15T03:25:49;9.40;99.90
26262;DHT22;13988;52.446;13.280;2024-02-15T03:28:15;9.40;99.90
26262;DHT22;13988;52.446;13.280;2024-02-15T03:30:42;9.30;99.90
26262;DHT22;13988;52.446;13.280;2024-02-15T03:33:08;9.40;99.90
26262;DHT22;13988;52.446;13.280;2024-02-15T03:35:34;9.40;99.90
26262;DHT22;13988;52.446;13.280;2024-02-15T03:38:00;9.40;99.90
26262;DHT22;13988;52.446;13.280;2024-02-15T03:40:26;9.40;99.90
26262;DHT22;13988;52.446;13.280;2024-02-15T03:42:55;9.40;99.90
26262;DHT22;13988;52.446;13.280;2024-02-15T03:45:21;9.40;99.90
26262;DHT22;13988;52.446;13.280;2024-02-15T03:47:51;9.40;99.90
26262;DHT22;13988;52.446;13.280;2024-02-15T03:50:17;9.50;99.90
26262;DHT22;13988;52.446;13.280;2024-02-15T03:52:44;9.40;99.90
26262;DHT22;13988;52.446;13.280;2024-02-15T03:55:10;9.50;99.90
26262;DHT22;13988;52.446;13.280;2024-02-15T03:57:39;9.50;99.90
26262;DHT22;13988;52.446;13.280;2024-02-15T04:00:12;9.50;99.90
26262;DHT22;13988;52.446;13.280;2024-02-15T04:02:39;9.50;99.90
26262;DHT22;13988;52.446;13.280;2024-02-15T04:05:09;9.50;99.90
26262;DHT22;13988;52.446;13.280;2024-02-15T04:07:37;9.50;99.90
26262;DHT22;13988;52.446;13.280;2024-02-15T04:10:04;9.50;99.90
26262;DHT22;13988;52.446;13.280;2024-02-15T04:12:30;9.50;99.90
26262;DHT22;13988;52.446;13.280;2024-02-15T04:14:56;9.50;99.90
26262;DHT22;13988;52.446;13.280;2024-02-15T04:17:30;9.50;99.90
26262;DHT22;13988;52.446;13.280;2024-02-15T04:19:58;9.50;99.90
26262;DHT22;13988;52.446;13.280;2024-02-15T04:22:23;9.50;99.90
26262;DHT22;13988;52.446;13.280;2024-02-15T04:24:49;9.50;99.90
26262;DHT22;13988;52.446;13.280;2024-02-15T04:27:15;9.50;99.90
26262;DHT22;13988;52.446;13.280;2024-02-15T04:29:41;9.50;99.90
26262;DHT22;13988;52.446;13.280;2024-02-15T04:32:09;9.50;99.90
26262;DHT22;13988;52.446;13.280;2024-02-15T04:34:36;9.50;99.90
26262;DHT22;13988;52.446;13.280;2024-02-15T04:37:03;9.50;99.90
26262;DHT22;13988;52.446;13.280;2024-02-15T04:39:32;9.50;99.90
26262;DHT22;13988;52.446;13.280;2024-02-15T04:41:58;9.50;99.90
26262;DHT22;13988;52.446;13.280;2024-02-15T04:44:24;9.50;99.90
26262;DHT22;13988;52.446;13.280;2024-02-15T04:46:53;9.50;99.90
26262;DHT22;13988;52.446;13.280;2024-02-15T04:49:19;9.50;99.90
26262;DHT22;13988;52.446;13.280;2024-02-15T04:51:46;9.50;99.90
26262;DHT22;13988;52.446;13.280;2024-02-15T04:54:13;9.50;99.90
26262;DHT22;13988;52.446;13.280;2024-02-15T04:56:42;9.50;99.90
26262;DHT22;13988;52.446;13.280;2024-02-15T04:59:11;9.50;99.90
26262;DHT22;13988;52.446;13.280;2024-02-15T05:01:43;9.50;99.90
26262;DHT22;13988;52.446;13.280;2024-02-15T05:04:09;9.60;99.90
26262;DHT22;13988;52.446;13.280;2024-02-15T05:06:35;9.60;99.90
26262;DHT22;13988;52.446;13.280;2024-02-15T05:09:04;9.60;99.90
26262;DHT22;13988;52.446;13.280;2024-02-15T05:11:36;9.60;99.90
26262;DHT22;13988;52.446;13.280;2024-02-15T05:14:03;9.60;99.90
26262;DHT22;13988;52.446;13.280;2024-02-15T05:16:33;9.60;99.90
26262;DHT22;13988;52.446;13.280;2024-02-15T05:18:59;9.60;99.90
26262;DHT22;13988;52.446;13.280;2024-02-15T05:21:24;9.60;99.90
26262;DHT22;13988;52.446;13.280;2024-02-15T05:23:50;9.60;99.90
26262;DHT22;13988;52.446;13.280;2024-02-15T05:26:17;9.60;99.90
26262;DHT22;13988;52.446;13.280;2024-02-15T05:28:49;9.60;99.90
26262;DHT22;13988;52.446;13.280;2024-02-15T05:31:19;9.60;99.90
26262;DHT22;13988;52.446;13.280;2024-02-15T05:33:51;9.60;99.90
26262;DHT22;13988;52.446;13.280;2024-02-15T05:36:18;9.60;99.90
26262;DHT22;13988;52.446;13.280;2024-02-15T05:38:47;9.60;99.90
26262;DHT22;13988;52.446;13.280;2024-02-15T05:41:13;9.60;99.90
26262;DHT22;13988;52.446;13.280;2024-02-15T05:43:39;9.60;99.90
26262;DHT22;13988;52.446;13.280;2024-02-15T05:46:08;9.60;99.90
26262;DHT22;13988;52.446;13.280;2024-02-15T05:48:34;9.70;99.90
26262;DHT22;13988;52.446;13.280;2024-02-15T05:51:01;9.70;99.90
26262;DHT22;13988;52.446;13.280;2024-02-15T05:53:27;9.70;99.90
26262;DHT22;13988;52.446;13.280;2024-02-15T05:55:53;9.70;99.90
26262;DHT22;13988;52.446;13.280;2024-02-15T05:58:18;9.70;99.90
26262;DHT22;13988;52.446;13.280;2024-02-15T06:00:44;9.70;99.90
26262;DHT22;13988;52.446;13.280;2024-02-15T06:03:13;9.60;99.90
26262;DHT22;13988;52.446;13.280;2024-02-15T06:05:38;9.60;99.90
26262;DHT22;13988;52.446;13.280;2024-02-15T06:08:05;9.70;99.90
26262;DHT22;13988;52.446;13.280;2024-02-15T06:10:31;9.70;99.90
26262;DHT22;13988;52.446;13.280;2024-02-15T06:12:58;9.70;99.90
26262;DHT22;13988;52.446;13.280;2024-02-15T06:15:25;9.70;99.90
26262;DHT22;13988;52.446;13.280;2024-02-15T06:17:51;9.70;99.90
26262;DHT22;13988;52.446;13.280;2024-02-15T06:20:16;9.70;99.90
26262;DHT22;13988;52.446;13.280;2024-02-15T06:22:47;9.70;99.90
26262;DHT22;13988;52.446;13.280;2024-02-15T06:25:13;9.80;99.90
26262;DHT22;13988;52.446;13.280;2024-02-15T06:27:40;9.70;99.90
26262;DHT22;13988;52.446;13.280;2024-02-15T06:30:11;9.70;99.90
26262;DHT22;13988;52.446;13.280;2024-02-15T06:32:55;9.80;99.90
26262;DHT22;13988;52.446;13.280;2024-02-15T06:35:39;9.80;99.90
26262;DHT22;13988;52.446;13.280;2024-02-15T06:38:23;9.80;99.90
26262;DHT22;13988;52.446;13.280;2024-02-15T06:41:08;9.80;99.90
26262;DHT22;13988;52.446;13.280;2024-02-15T06:43:36;9.80;99.90
26262;DHT22;13988;52.446;13.280;2024-02-15T06:46:05;9.80;99.90
26262;DHT22;13988;52.446;13.280;2024-02-15T06:48:31;9.80;99.90
26262;DHT22;13988;52.446;13.280;2024-02-15T06:50:57;9.80;99.90
26262;DHT22;13988;52.446;13.280;2024-02-15T06:53:23;9.90;99.90
26262;DHT22;13988;52.446;13.280;2024-02-15T06:55:49;9.80;99.90
26262;DHT22;13988;52.446;13.280;2024-02-15T06:58:16;9.80;99.90
26262;DHT22;13988;52.446;13.280;2024-02-15T07:00:45;9.80;99.90
26262;DHT22;13988;52.446;13.280;2024-02-15T07:03:11;9.90;99.90
26262;DHT22;13988;52.446;13.280;2024-02-15T07:05:37;9.90;99.90
26262;DHT22;13988;52.446;13.280;2024-02-15T07:08:07;9.90;99.90
26262;DHT22;13988;52.446;13.280;2024-02-15T07:10:37;9.90;99.90
26262;DHT22;13988;52.446;13.280;2024-02-15T07:13:04;9.90;99.90
26262;DHT22;13988;52.446;13.280;2024-02-15T07:15:29;9.90;99.90
26262;DHT22;13988;52.446;13.280;2024-02-15T07:17:58;10.00;99.90
26262;DHT22;13988;52.446;13.280;2024-02-15T07:20:24;10.00;99.90
26262;DHT22;13988;52.446;13.280;2024-02-15T07:22:51;10.00;99.90
26262;DHT22;13988;52.446;13.280;2024-02-15T07:25:16;10.00;99.90
26262;DHT22;13988;52.446;13.280;2024-02-15T07:27:43;10.00;99.90
26262;DHT22;13988;52.446;13.280;2024-02-15T07:30:09;10.10;99.90
26262;DHT22;13988;52.446;13.280;2024-02-15T07:32:35;10.10;99.90
26262;DHT22;13988;52.446;13.280;2024-02-15T07:35:01;10.00;99.90
26262;DHT22;13988;52.446;13.280;2024-02-15T07:37:27;10.00;99.90
26262;DHT22;13988;52.446;13.280;2024-02-15T07:39:54;10.10;99.90
26262;DHT22;13988;52.446;13.280;2024-02-15T07:42:20;10.00;99.90
26262;DHT22;13988;52.446;13.280;2024-02-15T07:44:45;10.10;99.90
26262;DHT22;13988;52.446;13.280;2024-02-15T07:47:11;10.20;99.90
26262;DHT22;13988;52.446;13.280;2024-02-15T07:49:37;10.10;99.90
26262;DHT22;13988;52.446;13.280;2024-02-15T07:52:03;10.10;99.90
26262;DHT22;13988;52.446;13.280;2024-02-15T07:54:30;10.10;99.90
26262;DHT22;13988;52.446;13.280;2024-02-15T07:56:58;10.10;99.90
26262;DHT22;13988;52.446;13.280;2024-02-15T07:59:24;10.20;99.90
26262;DHT22;13988;52.446;13.280;2024-02-15T08:01:50;10.20;99.90
26262;DHT22;13988;52.446;13.280;2024-02-15T08:04:16;10.30;99.90
26262;DHT22;13988;52.446;13.280;2024-02-15T08:06:43;10.40;99.90
26262;DHT22;13988;52.446;13.280;2024-02-15T08:09:09;10.40;99.90
26262;DHT22;13988;52.446;13.280;2024-02-15T08:11:40;10.40;99.90
26262;DHT22;13988;52.446;13.280;2024-02-15T08:14:06;10.40;99.90
26262;DHT22;13988;52.446;13.280;2024-02-15T08:16:35;10.40;99.90
26262;DHT22;13988;52.446;13.280;2024-02-15T08:19:01;10.50;99.90
26262;DHT22;13988;52.446;13.280;2024-02-15T08:21:30;10.50;99.90
26262;DHT22;13988;52.446;13.280;2024-02-15T08:23:59;10.50;99.90
26262;DHT22;13988;52.446;13.280;2024-02-15T08:26:25;10.50;99.90
26262;DHT22;13988;52.446;13.280;2024-02-15T08:28:51;10.60;99.90
26262;DHT22;13988;52.446;13.280;2024-02-15T08:31:16;10.60;99.90
26262;DHT22;13988;52.446;13.280;2024-02-15T08:33:42;10.60;99.90
26262;DHT22;13988;52.446;13.280;2024-02-15T08:36:12;10.60;99.90
26262;DHT22;13988;52.446;13.280;2024-02-15T08:38:39;10.60;99.90
26262;DHT22;13988;52.446;13.280;2024-02-15T08:41:06;10.60;99.90
26262;DHT22;13988;52.446;13.280;2024-02-15T08:43:34;10.60;99.90
26262;DHT22;13988;52.446;13.280;2024-02-15T08:45:59;10.60;99.90
26262;DHT22;13988;52.446;13.280;2024-02-15T08:48:25;10.60;99.90
26262;DHT22;13988;52.446;13.280;2024-02-15T08:50:51;10.60;99.90
26262;DHT22;13988;52.446;13.280;2024-02-15T08:53:17;10.70;99.90
26262;DHT22;13988;52.446;13.280;2024-02-15T08:55:48;10.70;99.90
26262;DHT22;13988;52.446;13.280;2024-02-15T08:58:13;10.70;99.90
26262;DHT22;13988;52.446;13.280;2024-02-15T09:00:39;10.80;99.90
26262;DHT22;13988;52.446;13.280;2024-02-15T09:03:10;10.80;99.90
26262;DHT22;13988;52.446;13.280;2024-02-15T09:05:36;10.90;99.90
26262;DHT22;13988;52.446;13.280;2024-02-15T09:08:01;11.00;99.90
26262;DHT22;13988;52.446;13.280;2024-02-15T09:10:29;10.90;99.90
26262;DHT22;13988;52.446;13.280;2024-02-15T09:12:55;11.00;99.90
26262;DHT22;13988;52.446;13.280;2024-02-15T09:15:22;11.00;99.90
26262;DHT22;13988;52.446;13.280;2024-02-15T09:17:48;11.00;99.90
26262;DHT22;13988;52.446;13.280;2024-02-15T09:20:14;11.00;99.90
26262;DHT22;13988;52.446;13.280;2024-02-15T09:22:48;11.00;99.90
26262;DHT22;13988;52.446;13.280;2024-02-15T09:25:14;11.00;99.90
26262;DHT22;13988;52.446;13.280;2024-02-15T09:27:40;11.00;99.90
26262;DHT22;13988;52.446;13.280;2024-02-15T09:30:07;11.00;99.90
26262;DHT22;13988;52.446;13.280;2024-02-15T09:32:38;11.00;99.90
26262;DHT22;13988;52.446;13.280;2024-02-15T09:35:04;11.00;99.90
26262;DHT22;13988;52.446;13.280;2024-02-15T09:37:36;11.00;99.90
26262;DHT22;13988;52.446;13.280;2024-02-15T09:40:09;11.00;99.90
26262;DHT22;13988;52.446;13.280;2024-02-15T09:42:36;11.00;99.90
26262;DHT22;13988;52.446;13.280;2024-02-15T09:45:02;11.10;99.90
26262;DHT22;13988;52.446;13.280;2024-02-15T09:47:34;11.10;99.90
26262;DHT22;13988;52.446;13.280;2024-02-15T09:50:05;11.20;99.90
26262;DHT22;13988;52.446;13.280;2024-02-15T09:52:32;11.20;99.90
26262;DHT22;13988;52.446;13.280;2024-02-15T09:55:02;11.20;99.90
26262;DHT22;13988;52.446;13.280;2024-02-15T09:57:29;11.30;99.90
26262;DHT22;13988;52.446;13.280;2024-02-15T09:59:58;11.40;99.90
26262;DHT22;13988;52.446;13.280;2024-02-15T10:02:26;11.40;99.90
26262;DHT22;13988;52.446;13.280;2024-02-15T10:04:53;11.40;99.90
26262;DHT22;13988;52.446;13.280;2024-02-15T10:07:24;11.40;99.90
26262;DHT22;13988;52.446;13.280;2024-02-15T10:09:52;11.50;99.90
26262;DHT22;13988;52.446;13.280;2024-02-15T10:12:18;11.50;99.90
26262;DHT22;13988;52.446;13.280;2024-02-15T10:14:52;11.50;99.90
26262;DHT22;13988;52.446;13.280;2024-02-15T10:17:19;11.50;99.90
26262;DHT22;13988;52.446;13.280;2024-02-15T10:22:16;11.60;99.90
26262;DHT22;13988;52.446;13.280;2024-02-15T10:24:43;11.70;99.90
26262;DHT22;13988;52.446;13.280;2024-02-15T10:27:08;11.70;99.90
26262;DHT22;13988;52.446;13.280;2024-02-15T10:29:36;11.80;99.90
26262;DHT22;13988;52.446;13.280;2024-02-15T10:32:03;11.90;99.90
26262;DHT22;13988;52.446;13.280;2024-02-15T10:34:30;12.00;99.90
26262;DHT22;13988;52.446;13.280;2024-02-15T10:37:15;12.10;99.90
26262;DHT22;13988;52.446;13.280;2024-02-15T10:40:04;12.00;99.90
26262;DHT22;13988;52.446;13.280;2024-02-15T10:42:33;12.00;99.90
26262;DHT22;13988;52.446;13.280;2024-02-15T10:45:05;12.00;99.90
26262;DHT22;13988;52.446;13.280;2024-02-15T10:47:38;12.10;99.90
26262;DHT22;13988;52.446;13.280;2024-02-15T10:50:06;12.10;99.90
26262;DHT22;13988;52.446;13.280;2024-02-15T10:52:32;12.20;99.90
26262;DHT22;13988;52.446;13.280;2024-02-15T10:55:04;12.20;99.90
26262;DHT22;13988;52.446;13.280;2024-02-15T10:57:34;12.20;99.90
26262;DHT22;13988;52.446;13.280;2024-02-15T11:00:03;12.10;99.90
26262;DHT22;13988;52.446;13.280;2024-02-15T11:02:42;12.10;99.90
26262;DHT22;13988;52.446;13.280;2024-02-15T11:05:12;12.20;99.90
26262;DHT22;13988;52.446;13.280;2024-02-15T11:07:40;12.20;99.90
26262;DHT22;13988;52.446;13.280;2024-02-15T11:10:07;12.20;99.90
26262;DHT22;13988;52.446;13.280;2024-02-15T11:12:36;12.20;99.90
26262;DHT22;13988;52.446;13.280;2024-02-15T11:15:02;12.30;99.90
26262;DHT22;13988;52.446;13.280;2024-02-15T11:20:19;12.40;99.90
26262;DHT22;13988;52.446;13.280;2024-02-15T11:22:56;12.40;99.90
26262;DHT22;13988;52.446;13.280;2024-02-15T11:25:32;12.50;99.90
26262;DHT22;13988;52.446;13.280;2024-02-15T11:30:55;12.70;99.90
26262;DHT22;13988;52.446;13.280;2024-02-15T11:33:34;12.70;99.90
26262;DHT22;13988;52.446;13.280;2024-02-15T11:36:13;12.70;99.90
26262;DHT22;13988;52.446;13.280;2024-02-15T11:38:40;12.60;99.90
26262;DHT22;13988;52.446;13.280;2024-02-15T11:41:07;12.50;99.90
26262;DHT22;13988;52.446;13.280;2024-02-15T11:46:18;12.50;99.90
26262;DHT22;13988;52.446;13.280;2024-02-15T11:48:53;12.50;99.90
26262;DHT22;13988;52.446;13.280;2024-02-15T11:51:34;12.40;99.90
26262;DHT22;13988;52.446;13.280;2024-02-15T11:54:09;12.40;99.90
26262;DHT22;13988;52.446;13.280;2024-02-15T11:59:09;12.40;99.90
26262;DHT22;13988;52.446;13.280;2024-02-15T12:01:44;12.40;99.90
26262;DHT22;13988;52.446;13.280;2024-02-15T12:04:29;12.30;99.90
26262;DHT22;13988;52.446;13.280;2024-02-15T12:07:16;12.30;99.90
26262;DHT22;13988;52.446;13.280;2024-02-15T12:10:01;12.30;99.90
26262;DHT22;13988;52.446;13.280;2024-02-15T12:12:52;12.40;99.90
26262;DHT22;13988;52.446;13.280;2024-02-15T12:15:36;12.40;99.90
26262;DHT22;13988;52.446;13.280;2024-02-15T12:18:20;12.40;99.90
26262;DHT22;13988;52.446;13.280;2024-02-15T12:21:08;12.40;99.90
26262;DHT22;13988;52.446;13.280;2024-02-15T12:23:37;12.50;99.90
26262;DHT22;13988;52.446;13.280;2024-02-15T12:26:04;12.50;99.90
26262;DHT22;13988;52.446;13.280;2024-02-15T12:28:30;12.70;99.90
26262;DHT22;13988;52.446;13.280;2024-02-15T12:30:56;12.80;99.90
26262;DHT22;13988;52.446;13.280;2024-02-15T12:33:26;12.90;99.90
26262;DHT22;13988;52.446;13.280;2024-02-15T12:36:06;12.90;99.90
26262;DHT22;13988;52.446;13.280;2024-02-15T12:38:33;12.90;99.90
26262;DHT22;13988;52.446;13.280;2024-02-15T12:41:03;12.90;99.90
26262;DHT22;13988;52.446;13.280;2024-02-15T12:43:29;12.90;99.90
26262;DHT22;13988;52.446;13.280;2024-02-15T12:45:54;12.90;99.90
26262;DHT22;13988;52.446;13.280;2024-02-15T12:48:22;12.90;99.90
26262;DHT22;13988;52.446;13.280;2024-02-15T12:50:48;12.90;99.90
26262;DHT22;13988;52.446;13.280;2024-02-15T12:53:21;13.00;99.90
26262;DHT22;13988;52.446;13.280;2024-02-15T12:55:53;13.20;99.90
26262;DHT22;13988;52.446;13.280;2024-02-15T12:58:20;13.40;99.90
26262;DHT22;13988;52.446;13.280;2024-02-15T13:00:46;13.30;99.90
26262;DHT22;13988;52.446;13.280;2024-02-15T13:03:12;13.30;99.90
26262;DHT22;13988;52.446;13.280;2024-02-15T13:05:40;13.20;99.90
26262;DHT22;13988;52.446;13.280;2024-02-15T13:08:05;13.20;99.90
26262;DHT22;13988;52.446;13.280;2024-02-15T13:10:41;13.20;99.90
26262;DHT22;13988;52.446;13.280;2024-02-15T13:13:07;13.20;99.90
26262;DHT22;13988;52.446;13.280;2024-02-15T13:15:34;13.20;99.90
26262;DHT22;13988;52.446;13.280;2024-02-15T13:18:02;13.20;99.90
26262;DHT22;13988;52.446;13.280;2024-02-15T13:20:29;13.20;99.90
26262;DHT22;13988;52.446;13.280;2024-02-15T13:22:58;13.20;99.90
26262;DHT22;13988;52.446;13.280;2024-02-15T13:25:27;13.30;99.90
26262;DHT22;13988;52.446;13.280;2024-02-15T13:27:53;13.40;99.90
26262;DHT22;13988;52.446;13.280;2024-02-15T13:30:19;13.50;99.90
26262;DHT22;13988;52.446;13.280;2024-02-15T13:32:49;13.50;99.90
26262;DHT22;13988;52.446;13.280;2024-02-15T13:35:18;13.40;99.90
26262;DHT22;13988;52.446;13.280;2024-02-15T13:37:53;13.40;99.90
26262;DHT22;13988;52.446;13.280;2024-02-15T13:40:24;13.30;99.90
26262;DHT22;13988;52.446;13.280;2024-02-15T13:42:51;13.30;99.90
26262;DHT22;13988;52.446;13.280;2024-02-15T13:45:40;13.30;99.90
26262;DHT22;13988;52.446;13.280;2024-02-15T13:48:06;13.40;99.90
26262;DHT22;13988;52.446;13.280;2024-02-15T13:50:36;13.40;99.90
26262;DHT22;13988;52.446;13.280;2024-02-15T13:53:04;13.40;99.90
26262;DHT22;13988;52.446;13.280;2024-02-15T13:55:30;13.50;99.90
26262;DHT22;13988;52.446;13.280;2024-02-15T13:57:56;13.50;99.90
26262;DHT22;13988;52.446;13.280;2024-02-15T14:00:22;13.50;99.90
26262;DHT22;13988;52.446;13.280;2024-02-15T14:02:53;13.40;99.90
26262;DHT22;13988;52.446;13.280;2024-02-15T14:05:20;13.50;99.90
26262;DHT22;13988;52.446;13.280;2024-02-15T14:07:58;13.40;99.90
26262;DHT22;13988;52.446;13.280;2024-02-15T14:10:25;13.50;99.90
26262;DHT22;13988;52.446;13.280;2024-02-15T14:12:52;13.50;99.90
26262;DHT22;13988;52.446;13.280;2024-02-15T14:15:21;13.40;99.90
26262;DHT22;13988;52.446;13.280;2024-02-15T14:17:47;13.40;99.90
26262;DHT22;13988;52.446;13.280;2024-02-15T14:20:13;13.40;99.90
26262;DHT22;13988;52.446;13.280;2024-02-15T14:22:46;13.40;99.90
26262;DHT22;13988;52.446;13.280;2024-02-15T14:25:21;13.40;99.90
26262;DHT22;13988;52.446;13.280;2024-02-15T14:27:46;13.40;99.90
26262;DHT22;13988;52.446;13.280;2024-02-15T14:30:13;13.40;99.90
26262;DHT22;13988;52.446;13.280;2024-02-15T14:32:57;13.30;99.90
26262;DHT22;13988;52.446;13.280;2024-02-15T14:35:26;13.30;99.90
26262;DHT22;13988;52.446;13.280;2024-02-15T14:37:54;13.30;99.90
26262;DHT22;13988;52.446;13.280;2024-02-15T14:40:23;13.30;99.90
26262;DHT22;13988;52.446;13.280;2024-02-15T14:42:49;13.30;99.90
26262;DHT22;13988;52.446;13.280;2024-02-15T14:45:14;13.30;99.90
26262;DHT22;13988;52.446;13.280;2024-02-15T14:47:40;13.30;99.90
26262;DHT22;13988;52.446;13.280;2024-02-15T14:50:08;13.20;99.90
26262;DHT22;13988;52.446;13.280;2024-02-15T14:52:36;13.20;99.90
26262;DHT22;13988;52.446;13.280;2024-02-15T14:55:03;13.20;99.90
26262;DHT22;13988;52.446;13.280;2024-02-15T14:57:31;13.10;99.90
26262;DHT22;13988;52.446;13.280;2024-02-15T14:59:58;13.10;99.90
26262;DHT22;13988;52.446;13.280;2024-02-15T15:02:24;13.00;99.90
26262;DHT22;13988;52.446;13.280;2024-02-15T15:04:50;13.00;99.90
26262;DHT22;13988;52.446;13.280;2024-02-15T15:07:34;13.00;99.90
26262;DHT22;13988;52.446;13.280;2024-02-15T15:10:18;12.90;99.90
26262;DHT22;13988;52.446;13.280;2024-02-15T15:13:03;12.90;99.90
26262;DHT22;13988;52.446;13.280;2024-02-15T15:15:28;12.90;99.90
26262;DHT22;13988;52.446;13.280;2024-02-15T15:17:54;12.90;99.90
26262;DHT22;13988;52.446;13.280;2024-02-15T15:20:21;12.80;99.90
26262;DHT22;13988;52.446;13.280;2024-02-15T15:22:46;12.80;99.90
26262;DHT22;13988;52.446;13.280;2024-02-15T15:25:12;12.80;99.90
26262;DHT22;13988;52.446;13.280;2024-02-15T15:27:38;12.80;99.90
26262;DHT22;13988;52.446;13.280;2024-02-15T15:30:06;12.80;99.90
26262;DHT22;13988;52.446;13.280;2024-02-15T15:32:31;12.80;99.90
26262;DHT22;13988;52.446;13.280;2024-02-15T15:34:59;12.80;99.90
26262;DHT22;13988;52.446;13.280;2024-02-15T15:37:24;12.70;99.90
26262;DHT22;13988;52.446;13.280;2024-02-15T15:39:50;12.70;99.90
26262;DHT22;13988;52.446;13.280;2024-02-15T15:42:16;12.70;99.90
26262;DHT22;13988;52.446;13.280;2024-02-15T15:44:43;12.70;99.90